Airfield :
LOGIN :

Register | Disclaimer

   EN    FR    IT 

 










Legend :    VFR   Marginal VFR   IFR   Intensive IFR   Very Intensive IFR
Visi :
Ceiling :
>= 8 km
>= 3000ft
5 to 8 km
1000 to 3000 ft
1500m to 5 km
500 to 1000 ft
800 to 1500m
200 to 500 ft
< 800m
< 200 ft
Symbols :   Thunderstorms  Fog  Heavy snow  Heavy precipitations  Wind > 20 kt
SIGMETs :     Misc.  Thunderstorms  Icing  Turbulence  Mountain Waves  Volcanic Ashes






- Airport Elevation : 0 ft
- IATA code : QFR


LIRH - Frosinone Military

CURRENT METAR :
  • 181355Z 20012KT 8000 VCTS FEW030CB BKN035TCU 16/07 Q1005

EXPIRED METARs :
  • 181255Z 22005KT 9999 FEW030CB SCT035 16/06 Q1005
  • 181155Z 21012KT 9999 -RA FEW030CB SCT035 14/06 Q1005 RMK BKN MON LIB VAR RAPID VIS MIN 9999 WIND THR16 22009KT BLU
  • 181055Z 19010KT 9999 FEW030CB BKN035 17/07 Q1006 RMK BKN MON CIME INC VAR RAPID VIS MIN 9999 WIND THR16 18011KT BLU
  • 180955Z 17006KT 9999 SCT035TCU 15/06 Q1006 RMK SCT MON LIB NC VIS MIN 9999 WIND THR16 17004KT BLU

TAF TAF LIRH
Valid from the 18 at 15:00 until the 19 at 00:00 UTC


181400Z 1815/1824 18005KT 9999 FEW030CB SCT035
TEMPO 1815/1817 20010G20KT 5000 SHRA
PROB40
TEMPO 1820/1822 16010KT 3000 TSRA SCT025CB BKN030



MET'MAP, your aeronautical weather chart ! - Copyright ORBIFLY December 2007 - Disclaimer

ORBIFLY MET'MAP TEAM :

Programming & Development : Alexandra Zaïnal
Original concept : Baudouin d'Aumeries
Technical & hardware support : Manuel Goepfert
Assistance : Marc-Olivier Méhu




SOURCES & CREDITS :

   NOAA